createdAt,value
2019-01-15T00:01:36.535Z,11.20
2019-01-15T00:04:08.144Z,11.18
2019-01-15T00:06:39.222Z,11.18
2019-01-15T00:09:11.037Z,11.16
2019-01-15T00:11:42.912Z,11.28
2019-01-15T00:14:14.489Z,11.28
2019-01-15T00:16:45.878Z,11.27
2019-01-15T00:19:17.143Z,11.26
2019-01-15T00:21:48.800Z,11.23
2019-01-15T00:24:20.965Z,11.07
2019-01-15T00:26:53.437Z,11.12
2019-01-15T00:29:24.593Z,11.37
2019-01-15T00:31:56.042Z,11.29
2019-01-15T00:34:27.474Z,11.29
2019-01-15T00:36:59.035Z,11.19
2019-01-15T00:39:31.083Z,11.19
2019-01-15T00:42:02.372Z,11.16
2019-01-15T00:44:33.778Z,11.33
2019-01-15T00:47:05.137Z,11.34
2019-01-15T00:49:36.436Z,11.25
2019-01-15T00:52:07.828Z,11.34
2019-01-15T00:54:39.911Z,11.25
2019-01-15T00:57:11.404Z,11.11
2019-01-15T00:59:42.660Z,11.20
2019-01-15T01:02:14.197Z,11.13
2019-01-15T01:04:45.447Z,11.09
2019-01-15T01:07:16.866Z,11.09
2019-01-15T01:09:48.390Z,11.23
2019-01-15T01:12:22.279Z,11.23
2019-01-15T01:14:52.562Z,11.04
2019-01-15T01:17:24.041Z,11.15
2019-01-15T01:19:55.480Z,11.15
2019-01-15T01:22:26.829Z,11.09
2019-01-15T01:24:58.233Z,11.09
2019-01-15T01:27:29.525Z,11.22
2019-01-15T01:30:00.878Z,11.03
2019-01-15T01:32:32.097Z,11.03
2019-01-15T01:35:03.559Z,11.04
2019-01-15T01:37:34.908Z,11.04
2019-01-15T01:40:11.321Z,11.08
2019-01-15T01:42:42.682Z,11.08
2019-01-15T01:45:14.678Z,11.22
2019-01-15T01:47:46.057Z,11.22
2019-01-15T01:50:17.716Z,11.16
2019-01-15T01:52:49.582Z,11.16
2019-01-15T01:55:20.831Z,11.26
2019-01-15T01:57:53.442Z,11.33
2019-01-15T02:00:25.103Z,11.18
2019-01-15T02:02:56.254Z,11.30
2019-01-15T02:05:28.050Z,11.26
2019-01-15T02:07:59.667Z,11.39
2019-01-15T02:10:31.453Z,11.39
2019-01-15T02:13:02.574Z,11.46
2019-01-15T02:15:34.159Z,11.56
2019-01-15T02:18:05.489Z,11.71
2019-01-15T02:20:37.434Z,14.78
2019-01-15T02:23:09.140Z,14.78
2019-01-15T02:25:40.816Z,15.05
2019-01-15T02:28:11.704Z,15.06
2019-01-15T02:30:42.953Z,15.06
2019-01-15T02:33:14.202Z,14.37
2019-01-15T02:35:45.639Z,14.37
2019-01-15T02:38:17.443Z,14.48
2019-01-15T02:40:48.800Z,14.48
2019-01-15T02:43:20.143Z,14.62
2019-01-15T02:45:52.037Z,14.64
2019-01-15T02:48:23.770Z,14.64
2019-01-15T02:50:55.176Z,14.76
2019-01-15T02:53:26.750Z,14.76
2019-01-15T02:55:58.477Z,14.70
2019-01-15T02:58:30.675Z,14.70
2019-01-15T03:01:02.002Z,14.75
2019-01-15T03:03:33.442Z,14.82
2019-01-15T03:06:05.526Z,14.57
2019-01-15T03:08:37.035Z,14.57
2019-01-15T03:11:08.781Z,14.78
2019-01-15T03:13:40.372Z,14.85
2019-01-15T03:16:11.793Z,14.79
2019-01-15T03:18:43.470Z,14.79
2019-01-15T03:21:14.866Z,14.86
2019-01-15T03:23:46.166Z,14.72
2019-01-15T03:26:17.963Z,14.93
2019-01-15T03:28:49.700Z,14.93
2019-01-15T03:31:21.013Z,14.93
2019-01-15T03:33:52.505Z,15.03
2019-01-15T03:36:23.794Z,14.94
2019-01-15T03:38:55.079Z,14.94
2019-01-15T03:41:26.199Z,15.10
2019-01-15T03:43:58.054Z,15.10
2019-01-15T03:46:29.648Z,15.03
2019-01-15T03:49:01.054Z,15.15
2019-01-15T03:51:33.476Z,15.06
2019-01-15T03:54:05.242Z,15.06
2019-01-15T03:56:36.954Z,15.19
2019-01-15T03:59:08.309Z,15.19
2019-01-15T04:01:39.711Z,14.97
2019-01-15T04:04:11.139Z,15.24
2019-01-15T04:06:43.175Z,15.23
2019-01-15T04:09:15.856Z,15.41
2019-01-15T04:11:47.137Z,15.41
2019-01-15T04:14:18.506Z,15.30
2019-01-15T04:16:49.802Z,15.30
2019-01-15T04:19:21.031Z,15.62
2019-01-15T04:21:52.377Z,15.52
2019-01-15T04:24:23.583Z,15.47
2019-01-15T04:26:56.263Z,15.50
2019-01-15T04:29:27.822Z,15.41
2019-01-15T04:31:59.215Z,15.41
2019-01-15T04:34:30.616Z,15.38
2019-01-15T04:37:01.958Z,15.52
2019-01-15T04:39:33.982Z,15.54
2019-01-15T04:42:05.675Z,15.54
2019-01-15T04:44:36.802Z,15.44
2019-01-15T04:47:07.948Z,15.44
2019-01-15T04:49:39.433Z,15.34
2019-01-15T04:52:10.945Z,15.45
2019-01-15T04:54:42.481Z,15.45
2019-01-15T04:57:14.136Z,15.49
2019-01-15T04:59:45.831Z,15.60
2019-01-15T05:02:17.221Z,15.60
2019-01-15T05:04:48.725Z,15.63
2019-01-15T05:07:20.276Z,15.67
2019-01-15T05:09:52.034Z,15.67
2019-01-15T05:12:24.184Z,15.67
2019-01-15T05:14:55.771Z,15.67
2019-01-15T05:17:27.314Z,15.68
2019-01-15T05:19:58.788Z,15.70
2019-01-15T05:22:30.158Z,15.68
2019-01-15T05:25:02.212Z,15.67
2019-01-15T05:27:33.494Z,15.72
2019-01-15T05:30:05.586Z,15.74
2019-01-15T05:32:37.513Z,15.80
2019-01-15T05:35:09.445Z,15.80
2019-01-15T05:37:41.119Z,15.81
2019-01-15T05:40:12.918Z,15.98
2019-01-15T05:42:45.083Z,16.09
2019-01-15T05:45:23.526Z,16.09
2019-01-15T05:47:55.624Z,16.07
2019-01-15T05:50:37.609Z,16.19
2019-01-15T05:53:08.943Z,16.19
2019-01-15T05:55:40.582Z,16.16
2019-01-15T05:58:12.255Z,16.18
2019-01-15T06:00:43.633Z,16.19
2019-01-15T06:03:15.483Z,16.19
2019-01-15T06:05:47.321Z,16.07
2019-01-15T06:08:18.782Z,16.49
2019-01-15T06:10:50.458Z,16.26
2019-01-15T06:13:21.935Z,16.36
2019-01-15T06:15:53.533Z,16.46
2019-01-15T06:18:24.990Z,16.46
2019-01-15T06:20:56.697Z,16.71
2019-01-15T06:23:28.274Z,16.71
2019-01-15T06:25:59.463Z,16.72
2019-01-15T06:28:31.252Z,16.69
2019-01-15T06:31:02.562Z,16.86
2019-01-15T06:33:34.330Z,16.86
2019-01-15T06:36:05.681Z,16.97
2019-01-15T06:38:37.181Z,16.97
2019-01-15T06:41:08.812Z,16.98
2019-01-15T06:43:41.836Z,17.00
2019-01-15T06:46:13.396Z,16.99
2019-01-15T06:48:44.949Z,17.09
2019-01-15T06:51:16.623Z,17.10
2019-01-15T06:53:47.931Z,17.09
2019-01-15T06:56:19.291Z,17.09
2019-01-15T06:58:53.713Z,17.20
2019-01-15T07:01:25.817Z,17.20
2019-01-15T07:03:57.554Z,17.27
2019-01-15T07:06:29.206Z,17.21
2019-01-15T07:09:00.810Z,17.27
2019-01-15T07:11:34.026Z,17.28
2019-01-15T07:14:05.946Z,17.20
2019-01-15T07:16:38.559Z,17.18
2019-01-15T07:19:10.004Z,17.42
2019-01-15T07:21:41.257Z,17.42
2019-01-15T07:24:13.417Z,17.35
2019-01-15T07:26:44.720Z,17.26
2019-01-15T07:29:16.119Z,17.26
2019-01-15T07:31:47.664Z,17.45
2019-01-15T07:34:19.532Z,17.39
2019-01-15T07:36:50.741Z,17.45
2019-01-15T07:39:23.216Z,17.45
2019-01-15T07:41:54.886Z,17.60
2019-01-15T07:44:26.261Z,17.87
2019-01-15T07:46:58.101Z,17.56
2019-01-15T07:49:29.623Z,17.56
2019-01-15T07:52:01.037Z,17.64
2019-01-15T07:54:32.516Z,17.64
2019-01-15T07:57:03.892Z,17.69
2019-01-15T07:59:35.544Z,17.64
2019-01-15T08:02:08.225Z,17.64
2019-01-15T08:04:39.905Z,17.75
2019-01-15T08:07:11.338Z,17.90
2019-01-15T08:09:42.897Z,17.76
2019-01-15T08:12:14.704Z,17.76
2019-01-15T08:14:46.224Z,17.79
2019-01-15T08:17:17.651Z,17.85
2019-01-15T08:19:48.752Z,17.85
2019-01-15T08:22:20.778Z,17.96
2019-01-15T08:24:52.536Z,18.10
2019-01-15T08:27:24.392Z,18.08
2019-01-15T08:29:55.599Z,18.08
2019-01-15T08:32:27.995Z,17.85
2019-01-15T08:34:59.336Z,17.98
2019-01-15T08:37:30.956Z,18.08
2019-01-15T08:40:02.441Z,18.01
2019-01-15T08:42:33.770Z,18.08
2019-01-15T08:45:06.225Z,18.08
2019-01-15T08:47:41.092Z,18.08
2019-01-15T08:50:13.018Z,18.05
2019-01-15T08:52:44.841Z,18.11
2019-01-15T08:55:16.203Z,18.03
2019-01-15T08:57:47.937Z,18.07
2019-01-15T09:00:19.534Z,18.13
2019-01-15T09:02:52.038Z,18.13
2019-01-15T09:05:23.659Z,17.94
2019-01-15T09:07:55.797Z,17.93
2019-01-15T09:10:27.245Z,17.87
2019-01-15T09:12:58.578Z,17.97
2019-01-15T09:15:30.538Z,17.97
2019-01-15T09:18:02.420Z,17.90
2019-01-15T09:20:33.932Z,17.89
2019-01-15T09:23:05.573Z,17.89
2019-01-15T09:25:37.977Z,17.89
2019-01-15T09:28:13.076Z,17.76
2019-01-15T09:30:46.696Z,17.76
2019-01-15T09:33:20.313Z,17.78
2019-01-15T09:35:53.537Z,17.89
2019-01-15T09:38:26.025Z,17.89
2019-01-15T09:41:00.091Z,17.97
2019-01-15T09:43:32.560Z,17.93
2019-01-15T09:46:04.291Z,17.99
2019-01-15T09:48:38.045Z,17.99
2019-01-15T09:51:09.807Z,17.97
2019-01-15T09:53:43.219Z,17.97
2019-01-15T09:56:15.171Z,18.04
2019-01-15T09:58:48.123Z,17.91
2019-01-15T10:01:20.497Z,17.96
2019-01-15T10:03:52.388Z,18.01
2019-01-15T10:06:27.216Z,17.91
2019-01-15T10:08:58.867Z,17.91
2019-01-15T10:11:30.616Z,18.16
2019-01-15T10:14:02.457Z,18.13
2019-01-15T10:16:33.930Z,18.13
2019-01-15T10:19:05.587Z,18.13
2019-01-15T10:21:37.210Z,18.10
2019-01-15T10:24:09.157Z,18.10
2019-01-15T10:26:40.606Z,18.19
2019-01-15T10:29:13.139Z,18.21
2019-01-15T10:32:26.857Z,18.21
2019-01-15T10:34:59.584Z,18.22
2019-01-15T10:37:31.191Z,18.22
2019-01-15T10:40:02.768Z,18.15
2019-01-15T10:42:34.533Z,18.17
2019-01-15T10:45:07.006Z,18.12
2019-01-15T10:47:39.357Z,18.12
2019-01-15T10:50:11.358Z,18.28
2019-01-15T10:52:43.197Z,18.28
2019-01-15T10:55:14.816Z,18.18
2019-01-15T10:57:46.402Z,18.18
2019-01-15T11:00:17.977Z,18.18
2019-01-15T11:02:49.411Z,18.19
2019-01-15T11:05:20.771Z,18.16
2019-01-15T11:07:52.338Z,18.12
2019-01-15T11:10:23.847Z,18.12
2019-01-15T11:12:55.184Z,18.12
2019-01-15T11:15:26.897Z,18.08
2019-01-15T11:17:58.960Z,18.01
2019-01-15T11:20:30.838Z,18.13
2019-01-15T11:23:02.301Z,18.13
2019-01-15T11:25:33.849Z,17.84
2019-01-15T11:28:06.957Z,17.84
2019-01-15T11:30:38.667Z,17.98
2019-01-15T11:33:10.532Z,18.11
2019-01-15T11:35:41.913Z,18.06
2019-01-15T11:38:13.551Z,18.06
2019-01-15T11:40:44.775Z,18.07
2019-01-15T11:43:17.857Z,18.11
2019-01-15T11:45:49.240Z,17.99
2019-01-15T11:48:21.611Z,18.00
2019-01-15T11:50:52.795Z,17.97
2019-01-15T11:53:24.268Z,17.97
2019-01-15T11:55:55.472Z,17.95
2019-01-15T11:58:27.039Z,18.05
2019-01-15T12:01:16.246Z,18.07
2019-01-15T12:04:16.253Z,18.08
2019-01-15T12:07:05.617Z,18.06
2019-01-15T12:09:54.890Z,18.01
2019-01-15T12:12:43.656Z,18.05
2019-01-15T12:15:28.010Z,18.05
2019-01-15T12:18:16.952Z,18.03
2019-01-15T12:21:19.134Z,17.92
2019-01-15T12:24:09.450Z,17.98
2019-01-15T12:27:04.561Z,17.93
2019-01-15T12:29:53.576Z,17.83
2019-01-15T12:32:44.589Z,17.91
2019-01-15T12:35:32.156Z,17.89
2019-01-15T12:38:25.586Z,17.67
2019-01-15T12:41:12.536Z,17.67
2019-01-15T12:44:21.624Z,17.71
2019-01-15T12:47:12.420Z,17.79
2019-01-15T12:50:01.699Z,17.94
2019-01-15T12:52:51.680Z,17.94
2019-01-15T12:55:40.841Z,17.92
2019-01-15T12:58:35.847Z,17.92
2019-01-15T13:01:29.311Z,17.92
2019-01-15T13:04:18.264Z,17.91
2019-01-15T13:07:19.853Z,17.88
2019-01-15T13:10:01.620Z,17.83
2019-01-15T13:13:02.043Z,17.83
2019-01-15T13:15:51.681Z,17.78
2019-01-15T13:18:44.717Z,17.75
2019-01-15T13:21:35.265Z,17.63
2019-01-15T13:24:40.822Z,17.58
2019-01-15T13:27:29.977Z,17.74
2019-01-15T13:30:25.956Z,17.78
2019-01-15T13:33:16.603Z,17.78
2019-01-15T13:36:04.958Z,17.77
2019-01-15T13:38:50.635Z,17.77
2019-01-15T13:41:49.663Z,17.75
2019-01-15T13:44:49.242Z,17.73
2019-01-15T13:47:39.739Z,17.73
2019-01-15T13:50:24.495Z,17.70
2019-01-15T13:53:30.351Z,17.70
2019-01-15T13:56:20.860Z,17.68
2019-01-15T13:59:23.092Z,17.65
2019-01-15T14:02:05.408Z,17.64
2019-01-15T14:05:10.643Z,17.62
2019-01-15T14:08:19.817Z,17.50
2019-01-15T14:11:25.319Z,17.50
2019-01-15T14:14:15.946Z,17.43
2019-01-15T14:17:03.160Z,17.43
2019-01-15T14:19:56.738Z,17.52
2019-01-15T14:22:49.891Z,17.58
2019-01-15T14:25:55.267Z,17.58
2019-01-15T14:28:52.086Z,17.58
2019-01-15T14:31:40.736Z,17.54
2019-01-15T14:34:30.220Z,17.54
2019-01-15T14:37:27.870Z,17.48
2019-01-15T14:40:30.775Z,17.48
2019-01-15T14:43:24.455Z,17.44
2019-01-15T14:46:20.604Z,17.44
2019-01-15T14:49:02.391Z,17.47
2019-01-15T14:52:10.801Z,17.48
2019-01-15T14:55:07.585Z,17.48
2019-01-15T14:57:56.685Z,16.15
2019-01-15T15:00:49.936Z,15.59
2019-01-15T15:03:32.786Z,15.65
2019-01-15T15:06:17.300Z,15.65
2019-01-15T15:09:06.580Z,15.39
2019-01-15T15:12:00.658Z,15.36
2019-01-15T15:14:45.141Z,15.15
2019-01-15T15:17:38.274Z,15.06
2019-01-15T15:20:32.112Z,15.10
2019-01-15T15:23:22.448Z,14.99
2019-01-15T15:26:24.204Z,14.93
2019-01-15T15:29:17.477Z,14.94
2019-01-15T15:32:06.024Z,15.03
2019-01-15T15:34:59.097Z,15.03
2019-01-15T15:37:50.184Z,14.95
2019-01-15T15:40:41.258Z,14.96
2019-01-15T15:43:34.743Z,15.13
2019-01-15T15:46:19.572Z,15.05
2019-01-15T15:49:13.199Z,15.18
2019-01-15T15:52:09.519Z,15.00
2019-01-15T15:55:14.868Z,15.00
2019-01-15T15:58:12.172Z,14.96
2019-01-15T16:01:01.025Z,15.12
2019-01-15T16:03:44.709Z,15.12
2019-01-15T16:06:49.379Z,14.82
2019-01-15T16:09:41.363Z,14.81
2019-01-15T16:12:31.886Z,14.81
2019-01-15T16:15:26.456Z,14.94
2019-01-15T16:18:15.748Z,14.80
2019-01-15T16:21:14.651Z,14.80
2019-01-15T16:24:19.714Z,14.70
2019-01-15T16:27:19.581Z,14.72
2019-01-15T16:30:11.707Z,14.65
2019-01-15T16:33:05.289Z,14.65
2019-01-15T16:36:07.475Z,14.66
2019-01-15T16:39:01.012Z,14.66
2019-01-15T16:41:51.809Z,14.44
2019-01-15T16:45:00.432Z,14.55
2019-01-15T16:47:57.680Z,14.55
2019-01-15T16:50:53.696Z,14.43
2019-01-15T16:53:41.251Z,14.30
2019-01-15T16:56:30.396Z,14.21
2019-01-15T16:59:20.839Z,14.29
2019-01-15T17:02:09.764Z,14.39
2019-01-15T17:05:15.605Z,14.47
2019-01-15T17:08:04.747Z,14.32
2019-01-15T17:10:55.284Z,14.17
2019-01-15T17:13:52.348Z,13.93
2019-01-15T17:16:51.957Z,13.93
2019-01-15T17:19:52.567Z,14.04
2019-01-15T17:22:42.994Z,13.93
2019-01-15T17:25:34.596Z,13.81
2019-01-15T17:28:23.765Z,13.81
2019-01-15T17:31:09.499Z,13.81
2019-01-15T17:33:58.810Z,13.83
2019-01-15T17:36:54.510Z,13.83
2019-01-15T17:39:43.691Z,13.83
2019-01-15T17:42:33.061Z,13.80
2019-01-15T17:45:32.877Z,13.80
2019-01-15T17:48:23.369Z,13.79
2019-01-15T17:51:26.185Z,13.91
2019-01-15T17:54:20.143Z,13.85
2019-01-15T17:57:26.702Z,13.91
2019-01-15T18:00:15.351Z,13.56
2019-01-15T18:03:06.612Z,13.69
2019-01-15T18:06:00.994Z,13.68
2019-01-15T18:08:53.596Z,13.57
2019-01-15T18:11:52.899Z,13.57
2019-01-15T18:14:52.738Z,13.57
2019-01-15T18:17:40.678Z,13.37
2019-01-15T18:20:41.087Z,13.37
2019-01-15T18:23:40.003Z,13.44
2019-01-15T18:26:28.623Z,13.42
2019-01-15T18:29:22.191Z,13.16
2019-01-15T18:32:06.858Z,13.20
2019-01-15T18:34:58.401Z,13.26
2019-01-15T18:37:36.895Z,13.26
2019-01-15T18:40:42.986Z,13.24
2019-01-15T18:43:32.423Z,13.29
2019-01-15T18:46:16.235Z,13.49
2019-01-15T18:49:12.716Z,13.40
2019-01-15T18:52:03.510Z,13.40
2019-01-15T18:54:57.484Z,13.20
2019-01-15T18:57:53.822Z,13.14
2019-01-15T19:00:53.138Z,13.11
2019-01-15T19:03:52.630Z,13.33
2019-01-15T19:06:41.089Z,13.33
2019-01-15T19:09:32.116Z,13.11
2019-01-15T19:12:25.346Z,13.29
2019-01-15T19:15:22.194Z,13.15
2019-01-15T19:18:11.043Z,13.12
2019-01-15T19:21:02.166Z,13.12
2019-01-15T19:23:50.911Z,13.20
2019-01-15T19:26:40.280Z,13.03
2019-01-15T19:29:39.489Z,12.84
2019-01-15T19:32:30.332Z,12.84
2019-01-15T19:35:23.483Z,12.77
2019-01-15T19:38:14.028Z,12.77
2019-01-15T19:41:16.535Z,12.75
2019-01-15T19:44:13.370Z,12.86
2019-01-15T19:47:10.466Z,12.86
2019-01-15T19:49:54.886Z,12.86
2019-01-15T19:52:43.234Z,12.49
2019-01-15T19:55:32.288Z,12.49
2019-01-15T19:58:32.300Z,12.50
2019-01-15T20:01:22.764Z,12.87
2019-01-15T20:04:19.017Z,12.78
2019-01-15T20:07:18.631Z,12.78
2019-01-15T20:10:09.030Z,12.48
2019-01-15T20:13:11.708Z,12.67
2019-01-15T20:16:01.287Z,12.50
2019-01-15T20:18:54.459Z,12.53
2019-01-15T20:21:43.805Z,12.57
2019-01-15T20:24:34.776Z,12.34
2019-01-15T20:27:28.494Z,12.61
2019-01-15T20:30:24.937Z,12.61
2019-01-15T20:33:17.980Z,12.49
2019-01-15T20:36:06.843Z,12.60
2019-01-15T20:38:52.719Z,12.51
2019-01-15T20:41:54.591Z,12.43
2019-01-15T20:44:51.019Z,12.43
2019-01-15T20:47:44.493Z,12.40
2019-01-15T20:50:33.544Z,12.44
2019-01-15T20:53:15.168Z,12.63
2019-01-15T20:55:59.896Z,12.45
2019-01-15T20:58:49.068Z,12.45
2019-01-15T21:01:33.251Z,11.98
2019-01-15T21:04:29.640Z,12.26
2019-01-15T21:07:18.511Z,12.26
2019-01-15T21:10:01.116Z,12.29
2019-01-15T21:12:50.492Z,12.22
2019-01-15T21:15:40.886Z,12.15
2019-01-15T21:18:34.345Z,12.47
2019-01-15T21:21:23.120Z,12.47
2019-01-15T21:24:28.537Z,12.57
2019-01-15T21:27:22.758Z,12.57
2019-01-15T21:30:13.842Z,12.57
2019-01-15T21:33:07.233Z,12.57
2019-01-15T21:35:56.069Z,12.47
2019-01-15T21:38:55.269Z,12.47
2019-01-15T21:41:36.532Z,12.22
2019-01-15T21:44:25.328Z,12.22
2019-01-15T21:47:25.527Z,12.17
2019-01-15T21:50:24.414Z,12.38
2019-01-15T21:53:33.029Z,11.98
2019-01-15T21:56:36.127Z,11.73
2019-01-15T21:59:32.250Z,11.73
2019-01-15T22:02:19.818Z,11.55
2019-01-15T22:05:16.323Z,11.92
2019-01-15T22:08:09.906Z,12.10
2019-01-15T22:11:06.034Z,11.99
2019-01-15T22:14:02.555Z,11.99
2019-01-15T22:17:02.068Z,11.82
2019-01-15T22:19:58.061Z,11.99
2019-01-15T22:22:48.888Z,11.80
2019-01-15T22:25:38.152Z,11.80
2019-01-15T22:28:27.657Z,11.73
2019-01-15T22:31:17.204Z,11.87
2019-01-15T22:34:00.459Z,11.73
2019-01-15T22:37:06.096Z,11.85
2019-01-15T22:39:59.241Z,11.85
2019-01-15T22:42:52.705Z,11.62
2019-01-15T22:45:44.432Z,11.79
2019-01-15T22:48:37.814Z,11.83
2019-01-15T22:51:43.848Z,11.83
2019-01-15T22:54:44.199Z,11.69
2019-01-15T22:57:27.880Z,11.82
2019-01-15T23:00:21.245Z,11.68
2019-01-15T23:03:11.058Z,11.70
2019-01-15T23:06:01.763Z,11.70
2019-01-15T23:08:52.185Z,11.73
2019-01-15T23:11:37.596Z,11.67
2019-01-15T23:14:26.191Z,11.80
2019-01-15T23:17:19.754Z,11.75
2019-01-15T23:20:10.039Z,11.57
2019-01-15T23:22:56.447Z,11.57
2019-01-15T23:25:44.985Z,11.50
2019-01-15T23:28:30.466Z,11.35
2019-01-15T23:31:15.449Z,11.31
2019-01-15T23:34:14.640Z,11.31
2019-01-15T23:37:05.955Z,11.47
2019-01-15T23:40:11.607Z,11.47
2019-01-15T23:42:53.617Z,11.61
2019-01-15T23:45:55.465Z,11.55
2019-01-15T23:48:40.890Z,11.58
2019-01-15T23:51:34.205Z,11.58
2019-01-15T23:54:36.368Z,11.41
2019-01-15T23:57:36.793Z,11.42
